createdAt,value
2023-05-17T00:01:56.830Z,13.10
2023-05-17T00:04:23.648Z,13.80
2023-05-17T00:06:50.660Z,15.10
2023-05-17T00:09:17.722Z,14.70
2023-05-17T00:11:45.369Z,8.60
2023-05-17T00:14:13.037Z,11.00
2023-05-17T00:16:39.876Z,11.70
2023-05-17T00:19:08.827Z,11.40
2023-05-17T00:21:36.008Z,16.40
2023-05-17T00:24:03.304Z,13.90
2023-05-17T00:26:30.730Z,13.40
2023-05-17T00:28:57.557Z,19.50
2023-05-17T00:31:24.381Z,34.50
2023-05-17T00:33:51.483Z,32.70
2023-05-17T00:36:18.501Z,43.30
2023-05-17T00:38:45.478Z,42.90
2023-05-17T00:41:12.589Z,31.30
2023-05-17T00:43:39.465Z,32.50
2023-05-17T00:46:08.117Z,30.50
2023-05-17T00:48:36.651Z,37.80
2023-05-17T00:51:03.626Z,68.50
2023-05-17T00:53:31.818Z,75.10
2023-05-17T00:55:58.965Z,95.40
2023-05-17T00:58:26.206Z,77.20
2023-05-17T01:00:52.954Z,79.00
2023-05-17T01:03:22.048Z,71.00
2023-05-17T01:05:51.260Z,54.10
2023-05-17T01:08:18.221Z,41.50
2023-05-17T01:11:05.377Z,41.10
2023-05-17T01:13:57.535Z,38.40
2023-05-17T01:16:40.362Z,38.60
2023-05-17T01:19:36.221Z,32.20
2023-05-17T01:22:15.554Z,49.40
2023-05-17T01:25:07.959Z,43.80
2023-05-17T01:27:35.827Z,41.80
2023-05-17T01:30:02.851Z,34.50
2023-05-17T01:32:30.304Z,31.70
2023-05-17T01:34:57.141Z,30.70
2023-05-17T01:37:23.991Z,17.90
2023-05-17T01:39:52.706Z,21.50
2023-05-17T01:42:24.053Z,20.50
2023-05-17T01:45:06.013Z,20.80
2023-05-17T01:47:35.668Z,14.50
2023-05-17T01:50:03.008Z,15.50
2023-05-17T01:52:50.825Z,16.10
2023-05-17T01:55:36.350Z,17.20
2023-05-17T01:58:03.984Z,21.50
2023-05-17T02:00:31.042Z,15.20
2023-05-17T02:02:57.999Z,16.10
2023-05-17T02:05:25.057Z,20.30
2023-05-17T02:07:52.424Z,14.40
2023-05-17T02:10:19.830Z,17.50
2023-05-17T02:12:46.627Z,18.80
2023-05-17T02:15:15.772Z,14.60
2023-05-17T02:17:42.699Z,14.20
2023-05-17T02:20:11.298Z,21.00
2023-05-17T02:22:38.454Z,17.60
2023-05-17T02:25:06.541Z,19.00
2023-05-17T02:30:01.436Z,17.80
2023-05-17T02:32:29.921Z,22.70
2023-05-17T02:34:56.777Z,16.30
2023-05-17T02:37:23.723Z,14.60
2023-05-17T02:39:50.654Z,22.60
2023-05-17T02:42:17.479Z,15.90
2023-05-17T02:44:44.338Z,17.40
2023-05-17T02:47:11.229Z,17.40
2023-05-17T02:49:38.215Z,16.80
2023-05-17T02:52:05.423Z,17.00
2023-05-17T02:54:33.330Z,15.40
2023-05-17T02:57:00.671Z,12.80
2023-05-17T02:59:27.553Z,12.10
2023-05-17T03:01:54.877Z,13.00
2023-05-17T03:04:22.079Z,13.50
2023-05-17T03:06:50.403Z,18.00
2023-05-17T03:11:46.498Z,13.30
2023-05-17T03:14:19.044Z,21.80
2023-05-17T03:16:45.920Z,14.50
2023-05-17T03:19:13.499Z,16.40
2023-05-17T03:21:42.186Z,19.70
2023-05-17T03:24:09.253Z,11.60
2023-05-17T03:26:37.408Z,11.60
2023-05-17T03:29:05.399Z,16.00
2023-05-17T03:31:32.427Z,16.30
2023-05-17T03:33:59.534Z,13.30
2023-05-17T03:36:26.649Z,13.40
2023-05-17T03:38:53.864Z,10.40
2023-05-17T03:41:21.352Z,14.50
2023-05-17T03:43:49.212Z,16.20
2023-05-17T03:46:16.532Z,16.60
2023-05-17T03:48:43.593Z,21.80
2023-05-17T03:51:11.681Z,17.60
2023-05-17T03:53:42.604Z,12.90
2023-05-17T03:56:10.699Z,18.80
2023-05-17T03:58:38.050Z,15.50
2023-05-17T04:01:06.233Z,15.10
2023-05-17T04:03:33.326Z,27.20
2023-05-17T04:06:08.721Z,12.50
2023-05-17T04:08:36.510Z,21.00
2023-05-17T04:11:09.668Z,15.30
2023-05-17T04:13:37.446Z,12.90
2023-05-17T04:16:05.436Z,19.30
2023-05-17T04:18:36.487Z,12.20
2023-05-17T04:21:03.993Z,12.20
2023-05-17T04:23:32.897Z,10.10
2023-05-17T04:25:59.943Z,14.50
2023-05-17T04:28:28.110Z,9.60
2023-05-17T04:30:55.875Z,19.40
2023-05-17T04:33:23.610Z,14.30
2023-05-17T04:35:51.194Z,17.20
2023-05-17T04:40:46.213Z,18.70
2023-05-17T04:43:13.880Z,9.50
2023-05-17T04:45:41.231Z,9.60
2023-05-17T04:48:08.596Z,31.50
2023-05-17T04:50:36.145Z,15.10
2023-05-17T04:53:04.236Z,21.90
2023-05-17T04:55:32.695Z,22.80
2023-05-17T04:57:59.637Z,20.30
2023-05-17T05:00:27.524Z,15.90
2023-05-17T05:02:59.661Z,18.70
2023-05-17T05:05:26.813Z,17.60
2023-05-17T05:07:54.352Z,27.40
2023-05-17T05:10:22.657Z,40.10
2023-05-17T05:15:17.448Z,29.70
2023-05-17T05:17:49.175Z,34.50
2023-05-17T05:20:16.149Z,25.50
2023-05-17T05:22:43.516Z,34.10
2023-05-17T05:25:10.902Z,23.30
2023-05-17T05:27:37.863Z,31.90
2023-05-17T05:30:05.680Z,35.40
2023-05-17T05:32:33.427Z,25.20
2023-05-17T05:35:00.885Z,19.00
2023-05-17T05:37:28.056Z,17.20
2023-05-17T05:39:56.133Z,28.60
2023-05-17T05:42:23.268Z,49.80
2023-05-17T05:44:50.188Z,18.30
2023-05-17T05:47:17.452Z,21.30
2023-05-17T05:49:44.387Z,13.00
2023-05-17T05:52:11.528Z,18.00
2023-05-17T05:54:38.855Z,21.70
2023-05-17T05:57:06.153Z,17.40
2023-05-17T05:59:33.746Z,20.20
2023-05-17T06:02:01.015Z,16.70
2023-05-17T06:04:40.681Z,14.80
2023-05-17T06:07:13.444Z,14.60
2023-05-17T06:09:41.090Z,15.40
2023-05-17T06:12:08.240Z,14.40
2023-05-17T06:14:37.000Z,11.50
2023-05-17T06:17:04.562Z,12.50
2023-05-17T06:19:31.868Z,12.40
2023-05-17T06:21:58.962Z,11.80
2023-05-17T06:24:25.821Z,13.80
2023-05-17T06:26:52.736Z,15.70
2023-05-17T06:29:19.595Z,13.60
2023-05-17T06:31:47.556Z,14.80
2023-05-17T06:34:14.361Z,25.00
2023-05-17T06:36:41.170Z,9.70
2023-05-17T06:39:08.030Z,16.10
2023-05-17T06:41:34.792Z,13.20
2023-05-17T06:44:01.869Z,16.20
2023-05-17T06:46:29.157Z,16.30
2023-05-17T06:48:56.399Z,11.10
2023-05-17T06:53:51.607Z,18.40
2023-05-17T06:56:18.455Z,7.90
2023-05-17T06:58:45.475Z,9.30
2023-05-17T07:01:13.138Z,9.70
2023-05-17T07:03:40.142Z,9.00
2023-05-17T07:06:07.238Z,12.40
2023-05-17T07:08:35.702Z,17.60
2023-05-17T07:11:03.089Z,14.70
2023-05-17T07:13:30.730Z,7.00
2023-05-17T07:15:57.979Z,7.10
2023-05-17T07:18:26.078Z,6.50
2023-05-17T07:20:53.223Z,8.30
2023-05-17T07:23:20.078Z,9.00
2023-05-17T07:25:46.994Z,9.90
2023-05-17T07:28:16.521Z,7.00
2023-05-17T07:30:43.545Z,10.10
2023-05-17T07:33:11.202Z,10.00
2023-05-17T07:35:38.160Z,9.30
2023-05-17T07:38:04.947Z,4.10
2023-05-17T07:40:32.689Z,5.80
2023-05-17T07:43:00.015Z,12.70
2023-05-17T07:45:27.174Z,15.30
2023-05-17T07:47:54.212Z,10.30
2023-05-17T07:50:21.643Z,6.20
2023-05-17T07:52:48.800Z,6.60
2023-05-17T07:55:17.004Z,7.60
2023-05-17T07:57:44.850Z,3.30
2023-05-17T08:00:13.031Z,4.50
2023-05-17T08:02:40.407Z,6.80
2023-05-17T08:05:08.052Z,6.80
2023-05-17T08:07:35.490Z,6.40
2023-05-17T08:10:02.713Z,17.10
2023-05-17T08:12:31.753Z,10.70
2023-05-17T08:15:00.030Z,3.10
2023-05-17T08:17:27.083Z,5.80
2023-05-17T08:19:54.467Z,7.10
2023-05-17T08:22:21.362Z,7.10
2023-05-17T08:24:48.425Z,6.20
2023-05-17T08:27:16.351Z,10.20
2023-05-17T08:29:43.848Z,7.00
2023-05-17T08:32:10.617Z,4.80
2023-05-17T08:34:37.794Z,9.60
2023-05-17T08:37:04.673Z,10.50
2023-05-17T08:39:32.113Z,11.00
2023-05-17T08:42:01.102Z,13.50
2023-05-17T08:44:28.037Z,9.40
2023-05-17T08:46:54.934Z,6.90
2023-05-17T08:49:22.946Z,3.80
2023-05-17T08:51:50.133Z,8.50
2023-05-17T08:54:17.169Z,3.80
2023-05-17T08:56:44.550Z,8.40
2023-05-17T08:59:11.308Z,3.60
2023-05-17T09:01:39.442Z,16.60
2023-05-17T09:04:08.484Z,7.60
2023-05-17T09:06:35.648Z,7.60
2023-05-17T09:09:03.947Z,8.10
2023-05-17T09:11:32.412Z,9.90
2023-05-17T09:14:03.272Z,6.40
2023-05-17T09:16:37.175Z,10.50
2023-05-17T09:19:05.658Z,3.20
2023-05-17T09:21:33.612Z,7.00
2023-05-17T09:24:06.199Z,11.60
2023-05-17T09:26:42.241Z,7.20
2023-05-17T09:29:10.962Z,9.10
2023-05-17T09:31:39.104Z,6.00
2023-05-17T09:34:09.357Z,6.30
2023-05-17T09:36:37.245Z,3.60
2023-05-17T09:39:05.609Z,12.40
2023-05-17T09:41:33.768Z,5.30
2023-05-17T09:46:28.868Z,10.90
2023-05-17T09:48:56.182Z,17.70
2023-05-17T09:51:32.077Z,5.30
2023-05-17T09:53:59.022Z,9.40
2023-05-17T09:56:29.493Z,8.80
2023-05-17T09:58:58.529Z,4.70
2023-05-17T10:01:28.122Z,7.70
2023-05-17T10:03:55.316Z,19.80
2023-05-17T10:06:38.318Z,5.50
2023-05-17T10:09:11.739Z,8.80
2023-05-17T10:11:38.783Z,8.90
2023-05-17T10:14:26.623Z,3.90
2023-05-17T10:16:53.358Z,6.60
2023-05-17T10:19:21.235Z,6.00
2023-05-17T10:21:49.991Z,5.70
2023-05-17T10:24:17.042Z,7.10
2023-05-17T10:26:44.891Z,15.20
2023-05-17T10:29:11.679Z,7.20
2023-05-17T10:31:40.024Z,16.10
2023-05-17T10:34:07.439Z,10.60
2023-05-17T10:36:34.737Z,7.60
2023-05-17T10:39:21.619Z,8.80
2023-05-17T10:41:50.766Z,9.00
2023-05-17T10:44:18.845Z,15.30
2023-05-17T10:46:56.647Z,4.10
2023-05-17T10:49:25.453Z,13.90
2023-05-17T10:51:52.350Z,7.30
2023-05-17T10:54:19.287Z,11.00
2023-05-17T10:56:50.440Z,8.00
2023-05-17T10:59:18.101Z,2.30
2023-05-17T11:02:00.273Z,6.80
2023-05-17T11:04:33.259Z,11.80
2023-05-17T11:07:19.807Z,7.20
2023-05-17T11:10:09.250Z,5.80
2023-05-17T11:12:45.412Z,10.30
2023-05-17T11:15:16.642Z,14.00
2023-05-17T11:17:53.887Z,5.50
2023-05-17T11:20:27.912Z,3.30
2023-05-17T11:22:59.537Z,11.40
2023-05-17T11:25:31.888Z,30.10
2023-05-17T11:27:59.347Z,8.00
2023-05-17T11:30:28.362Z,6.00
2023-05-17T11:33:03.807Z,18.80
2023-05-17T11:35:33.388Z,13.50
2023-05-17T11:38:24.179Z,8.20
2023-05-17T11:40:54.726Z,13.50
2023-05-17T11:43:26.799Z,7.20
2023-05-17T11:45:57.671Z,5.40
2023-05-17T11:48:26.431Z,10.50
2023-05-17T11:50:54.605Z,8.00
2023-05-17T11:53:21.646Z,7.70
2023-05-17T11:55:52.248Z,4.70
2023-05-17T11:58:23.388Z,4.80
2023-05-17T12:00:57.481Z,13.00
2023-05-17T12:03:25.937Z,6.40
2023-05-17T12:06:14.467Z,6.60
2023-05-17T12:08:45.672Z,6.10
2023-05-17T12:11:14.498Z,4.90
2023-05-17T12:13:42.231Z,9.00
2023-05-17T12:16:10.920Z,3.50
2023-05-17T12:18:39.007Z,6.20
2023-05-17T12:26:09.338Z,6.10
2023-05-17T12:28:38.633Z,12.90
2023-05-17T12:31:10.633Z,11.90
2023-05-17T12:33:40.784Z,9.50
2023-05-17T12:36:09.045Z,9.10
2023-05-17T12:41:03.983Z,12.20
2023-05-17T12:43:32.994Z,5.50
2023-05-17T12:46:06.701Z,5.60
2023-05-17T12:48:35.653Z,5.90
2023-05-17T12:51:24.356Z,5.70
2023-05-17T12:53:55.697Z,5.40
2023-05-17T12:56:24.109Z,9.60
2023-05-17T12:59:09.547Z,8.40
2023-05-17T13:01:38.548Z,7.70
2023-05-17T13:04:05.683Z,7.50
2023-05-17T13:06:47.489Z,7.20
2023-05-17T13:09:15.459Z,12.40
2023-05-17T13:11:43.756Z,10.20
2023-05-17T13:14:13.917Z,11.30
2023-05-17T13:16:42.269Z,11.60
2023-05-17T13:21:40.631Z,6.70
2023-05-17T13:24:08.857Z,7.10
2023-05-17T13:26:35.849Z,7.20
2023-05-17T13:29:03.142Z,9.60
2023-05-17T13:31:30.266Z,8.40
2023-05-17T13:33:57.273Z,10.50
2023-05-17T13:36:24.091Z,11.20
2023-05-17T13:38:50.934Z,8.70
2023-05-17T13:41:17.866Z,8.00
2023-05-17T13:43:44.693Z,12.60
2023-05-17T13:46:11.465Z,9.30
2023-05-17T13:48:41.097Z,12.70
2023-05-17T13:51:09.726Z,11.40
2023-05-17T13:53:38.195Z,7.70
2023-05-17T13:56:05.447Z,9.40
2023-05-17T13:58:32.210Z,9.80
2023-05-17T14:00:59.028Z,8.30
2023-05-17T14:03:26.036Z,13.20
2023-05-17T14:05:53.677Z,6.10
2023-05-17T14:08:21.456Z,9.30
2023-05-17T14:10:48.294Z,11.70
2023-05-17T14:13:15.609Z,14.70
2023-05-17T14:15:42.476Z,14.30
2023-05-17T14:18:09.835Z,8.20
2023-05-17T14:20:36.768Z,12.70
2023-05-17T14:23:03.611Z,7.60
2023-05-17T14:25:30.436Z,10.20
2023-05-17T14:27:57.364Z,7.90
2023-05-17T14:30:24.206Z,8.20
2023-05-17T14:32:51.138Z,13.00
2023-05-17T14:35:18.045Z,7.00
2023-05-17T14:37:45.241Z,12.10
2023-05-17T14:40:12.180Z,5.60
2023-05-17T14:42:41.044Z,8.50
2023-05-17T14:45:08.499Z,8.70
2023-05-17T14:47:37.280Z,7.70
2023-05-17T14:50:04.457Z,7.20
2023-05-17T14:52:31.405Z,8.70
2023-05-17T14:54:58.777Z,6.30
2023-05-17T14:57:25.664Z,7.90
2023-05-17T14:59:52.498Z,9.20
2023-05-17T15:02:20.251Z,8.50
2023-05-17T15:04:47.711Z,9.40
2023-05-17T15:07:14.740Z,6.70
2023-05-17T15:09:42.772Z,11.40
2023-05-17T15:12:12.385Z,14.20
2023-05-17T15:14:41.232Z,14.60
2023-05-17T15:17:08.377Z,14.70
2023-05-17T15:19:35.619Z,11.60
2023-05-17T15:22:02.682Z,12.80
2023-05-17T15:24:30.264Z,11.40
2023-05-17T15:26:57.051Z,10.10
2023-05-17T15:29:24.117Z,7.00
2023-05-17T15:31:51.792Z,6.40
2023-05-17T15:34:18.753Z,7.80
2023-05-17T15:36:46.419Z,11.60
2023-05-17T15:39:13.584Z,14.40
2023-05-17T15:41:40.410Z,15.30
2023-05-17T15:44:08.511Z,12.60
2023-05-17T15:46:35.667Z,9.60
2023-05-17T15:49:02.479Z,13.00
2023-05-17T15:51:29.418Z,11.30
2023-05-17T15:53:56.508Z,6.30
2023-05-17T15:56:23.382Z,8.90
2023-05-17T15:58:50.360Z,9.70
2023-05-17T16:01:17.187Z,10.00
2023-05-17T16:03:44.046Z,10.60
2023-05-17T16:06:11.575Z,14.50
2023-05-17T16:08:38.544Z,10.70
2023-05-17T16:11:06.644Z,11.90
2023-05-17T16:13:33.989Z,10.10
2023-05-17T16:16:01.132Z,11.00
2023-05-17T16:18:29.741Z,7.20
2023-05-17T16:21:05.762Z,13.40
2023-05-17T16:23:33.194Z,7.20
2023-05-17T16:28:27.863Z,8.50
2023-05-17T16:30:55.687Z,10.70
2023-05-17T16:33:22.863Z,10.60
2023-05-17T16:35:49.962Z,13.20
2023-05-17T16:38:17.306Z,9.30
2023-05-17T16:40:45.425Z,8.30
2023-05-17T16:45:44.104Z,8.40
2023-05-17T16:48:14.433Z,5.20
2023-05-17T16:50:41.660Z,7.90
2023-05-17T16:53:08.516Z,7.30
2023-05-17T16:55:56.304Z,8.30
2023-05-17T16:58:23.145Z,7.20
2023-05-17T17:00:50.475Z,9.10
2023-05-17T17:03:17.349Z,20.60
2023-05-17T17:05:44.266Z,8.40
2023-05-17T17:08:11.414Z,10.80
2023-05-17T17:10:39.783Z,11.40
2023-05-17T17:13:06.610Z,19.70
2023-05-17T17:15:33.354Z,9.70
2023-05-17T17:18:00.435Z,10.00
2023-05-17T17:20:27.668Z,9.10
2023-05-17T17:22:55.618Z,9.90
2023-05-17T17:25:24.088Z,7.70
2023-05-17T17:27:53.077Z,8.70
2023-05-17T17:30:20.481Z,10.90
2023-05-17T17:32:48.003Z,8.50
2023-05-17T17:35:15.394Z,14.20
2023-05-17T17:37:42.398Z,9.20
2023-05-17T17:40:10.379Z,13.30
2023-05-17T17:42:37.356Z,17.70
2023-05-17T17:45:05.029Z,10.50
2023-05-17T17:47:32.498Z,8.40
2023-05-17T17:49:59.370Z,7.50
2023-05-17T17:52:26.094Z,16.60
2023-05-17T17:54:53.177Z,6.30
2023-05-17T17:57:40.029Z,11.30
2023-05-17T18:00:10.955Z,11.90
2023-05-17T18:02:39.208Z,9.10
2023-05-17T18:05:06.726Z,9.90
2023-05-17T18:07:34.213Z,9.20
2023-05-17T18:10:01.364Z,11.40
2023-05-17T18:12:28.459Z,14.50
2023-05-17T18:14:55.427Z,16.10
2023-05-17T18:17:22.401Z,10.90
2023-05-17T18:19:49.200Z,14.20
2023-05-17T18:22:16.498Z,15.50
2023-05-17T18:25:03.818Z,17.80
2023-05-17T18:27:30.974Z,18.20
2023-05-17T18:29:57.942Z,10.50
2023-05-17T18:32:25.133Z,26.10
2023-05-17T18:34:52.728Z,11.00
2023-05-17T18:37:19.679Z,6.30
2023-05-17T18:39:46.813Z,8.80
2023-05-17T18:42:13.687Z,6.70
2023-05-17T18:44:40.609Z,11.40
2023-05-17T18:47:07.531Z,12.40
2023-05-17T18:49:35.953Z,11.80
2023-05-17T18:54:30.221Z,8.10
2023-05-17T18:56:59.117Z,11.70
2023-05-17T18:59:28.726Z,11.00
2023-05-17T19:01:55.761Z,8.20
2023-05-17T19:04:22.836Z,15.10
2023-05-17T19:06:50.081Z,8.60
2023-05-17T19:09:16.868Z,10.40
2023-05-17T19:11:43.855Z,8.20
2023-05-17T19:14:14.057Z,11.60
2023-05-17T19:16:41.564Z,10.60
2023-05-17T19:19:08.633Z,13.00
2023-05-17T19:21:35.691Z,13.60
2023-05-17T19:24:05.131Z,11.80
2023-05-17T19:26:32.083Z,9.90
2023-05-17T19:28:58.995Z,10.50
2023-05-17T19:31:26.206Z,9.90
2023-05-17T19:33:52.998Z,8.80
2023-05-17T19:36:19.850Z,9.90
2023-05-17T19:38:46.797Z,13.90
2023-05-17T19:41:13.738Z,16.30
2023-05-17T19:43:40.786Z,10.20
2023-05-17T19:46:10.120Z,9.20
2023-05-17T19:48:37.847Z,10.90
2023-05-17T19:51:04.909Z,10.70
2023-05-17T19:53:43.892Z,9.70
2023-05-17T19:56:18.130Z,9.30
2023-05-17T19:58:45.704Z,8.40
2023-05-17T20:01:12.643Z,8.10
2023-05-17T20:03:40.094Z,13.40
2023-05-17T20:06:10.515Z,7.90
2023-05-17T20:08:37.580Z,11.10
2023-05-17T20:11:05.750Z,7.00
2023-05-17T20:16:00.792Z,10.90
2023-05-17T20:18:29.442Z,12.90
2023-05-17T20:20:56.682Z,12.80
2023-05-17T20:23:23.534Z,7.90
2023-05-17T20:25:50.688Z,11.20
2023-05-17T20:28:22.811Z,11.70
2023-05-17T20:30:49.562Z,10.30
2023-05-17T20:33:20.944Z,11.10
2023-05-17T20:35:48.289Z,9.50
2023-05-17T20:38:15.164Z,7.80
2023-05-17T20:40:42.620Z,9.20
2023-05-17T20:43:09.427Z,7.70
2023-05-17T20:45:37.120Z,8.90
2023-05-17T20:48:04.197Z,10.50
2023-05-17T20:50:31.221Z,9.70
2023-05-17T20:52:58.234Z,8.20
2023-05-17T20:55:26.098Z,8.60
2023-05-17T20:57:52.968Z,6.70
2023-05-17T21:00:20.589Z,8.80
2023-05-17T21:02:47.859Z,7.20
2023-05-17T21:05:15.006Z,9.40
2023-05-17T21:07:41.869Z,11.20
2023-05-17T21:10:09.024Z,14.50
2023-05-17T21:12:36.549Z,8.40
2023-05-17T21:15:15.697Z,9.80
2023-05-17T21:17:43.134Z,9.50
2023-05-17T21:20:10.911Z,12.00
2023-05-17T21:22:38.076Z,13.60
2023-05-17T21:25:05.624Z,14.30
2023-05-17T21:27:33.708Z,9.50
2023-05-17T21:30:01.206Z,13.80
2023-05-17T21:32:28.304Z,10.90
2023-05-17T21:34:55.548Z,8.30
2023-05-17T21:37:22.486Z,7.70
2023-05-17T21:39:49.408Z,7.90
2023-05-17T21:42:16.237Z,8.60
2023-05-17T21:44:43.212Z,8.40
2023-05-17T21:47:10.409Z,8.10
2023-05-17T21:49:37.416Z,7.30
2023-05-17T21:52:04.976Z,6.60
2023-05-17T21:54:31.829Z,11.00
2023-05-17T21:56:58.609Z,7.40
2023-05-17T21:59:25.460Z,8.80
2023-05-17T22:01:54.430Z,7.70
2023-05-17T22:04:21.332Z,9.00
2023-05-17T22:06:48.380Z,9.70
2023-05-17T22:09:15.266Z,9.10
2023-05-17T22:11:42.147Z,11.20
2023-05-17T22:14:08.944Z,8.40
2023-05-17T22:16:36.164Z,7.80
2023-05-17T22:19:04.540Z,7.50
2023-05-17T22:23:58.984Z,7.10
2023-05-17T22:26:27.136Z,9.20
2023-05-17T22:28:55.280Z,8.10
2023-05-17T22:31:22.365Z,6.90
2023-05-17T22:36:24.227Z,7.10
2023-05-17T22:38:51.127Z,10.50
2023-05-17T22:41:18.097Z,9.60
2023-05-17T22:43:45.346Z,16.60
2023-05-17T22:46:12.112Z,7.90
2023-05-17T22:48:40.053Z,7.70
2023-05-17T22:51:07.105Z,7.80
2023-05-17T22:53:33.973Z,9.70
2023-05-17T22:56:00.809Z,8.20
2023-05-17T22:58:28.857Z,8.00
2023-05-17T23:00:56.122Z,9.70
2023-05-17T23:03:23.090Z,9.90
2023-05-17T23:06:01.366Z,7.50
2023-05-17T23:08:29.640Z,8.30
2023-05-17T23:10:57.813Z,8.00
2023-05-17T23:13:25.555Z,9.10
2023-05-17T23:15:52.713Z,9.00
2023-05-17T23:18:20.908Z,10.90
2023-05-17T23:20:49.162Z,8.80
2023-05-17T23:25:47.837Z,9.30
2023-05-17T23:28:14.575Z,8.60
2023-05-17T23:30:41.388Z,9.10
2023-05-17T23:33:08.568Z,9.40
2023-05-17T23:35:36.986Z,9.70
2023-05-17T23:38:06.696Z,11.10
2023-05-17T23:40:33.832Z,9.80
2023-05-17T23:43:00.643Z,10.30
2023-05-17T23:45:27.430Z,9.20
2023-05-17T23:47:55.019Z,8.80
2023-05-17T23:50:21.886Z,9.70
2023-05-17T23:52:48.644Z,17.30
2023-05-17T23:55:15.502Z,9.60
2023-05-17T23:57:43.394Z,9.20
